Wedge Too — ZCII — position and weather

sailwx.info

Track history (hours):
 
Tides and Currents Weather Stations Pressure Air Temp Water Temp Dewpoint Dewpoint Depression Visibility Wind Speed Wind Dir Waves Ship Positions

Wedge Too

Last reported at 2016-Jul-28 15:33 UTC. Time now 2016-Jul-30 09:19 UTC.
Position N 44°18' E 009°13'.

Length 65 m; draft 3.4 m.

Type: Pleasure craft. MMSI: 319861000.

Date/timePositionNaut miles runAvg speedWind from/ knotsBaromVisibWave heightAir tempDewpointWater temp
2016-Jul-28 15:33N 44°18' E 009°13'1111.1
2016-Jul-28 14:33N 44°13' E 008°59'1413.7
2016-Jul-28 13:33N 44°07' E 008°42'1413.8
2016-Jul-28 12:32N 44°00' E 008°25'1313.5
2016-Jul-28 11:33N 43°54' E 008°09'1513.7
2016-Jul-28 10:29N 43°48' E 007°50'1413.7
2016-Jul-28 09:27N 43°45' E 007°31'4 3.3
2016-Jul-28 08:11N 43°44' E 007°25'0 0.0
2016-Jul-28 07:29N 43°44' E 007°25'0 0.0
2016-Jul-28 06:23N 43°44' E 007°25'0 0.0
2016-Jul-28 05:29N 43°44' E 007°25'0 0.0
2016-Jul-28 03:29N 43°44' E 007°25'0 0.0
2016-Jul-27 21:05N 43°44' E 007°25'0 0.0
2016-Jul-27 17:20N 43°44' E 007°25'0 0.0
2016-Jul-27 16:17N 43°44' E 007°25'0 0.0
2016-Jul-27 13:08N 43°44' E 007°25'0 0.0
2016-Jul-26 02:17N 43°44' E 007°25'0 0.0
2016-Jul-26 00:05N 43°44' E 007°25'0 0.0
2016-Jul-25 23:26N 43°44' E 007°25'0 0.0
2016-Jul-25 21:26N 43°44' E 007°25'0 0.0
2016-Jul-25 20:26N 43°44' E 007°25'0 0.0
2016-Jul-25 10:26N 43°44' E 007°25'0 0.0
2016-Jul-25 09:29N 43°44' E 007°25'0 0.0
2016-Jul-25 08:32N 43°44' E 007°25'0 0.0
2016-Jul-25 07:23N 43°44' E 007°25'0 0.0
2016-Jul-25 01:29N 43°44' E 007°25'0 0.0
2016-Jul-25 00:17N 43°44' E 007°25'0 0.0
2016-Jul-24 23:29N 43°44' E 007°25'0 0.0
2016-Jul-24 22:29N 43°44' E 007°25'0 0.0
2016-Jul-24 21:11N 43°44' E 007°25'0 0.0
2016-Jul-24 20:17N 43°44' E 007°25'0 0.0
2016-Jul-24 19:23N 43°44' E 007°25'0 0.0
2016-Jul-24 18:11N 43°44' E 007°25'0 0.0
2016-Jul-24 17:29N 43°44' E 007°25'0 0.0
2016-Jul-24 14:29N 43°44' E 007°25'0 0.0
2016-Jul-24 13:23N 43°44' E 007°25'1 0.2
2016-Jul-24 10:27N 43°44' E 007°26'1112.8
2016-Jul-24 09:33N 43°36' E 007°15'1313.2
2016-Jul-24 08:34N 43°27' E 007°02'21 0.6
2016-Jul-22 19:13N 43°16' E 006°38'0 0.0
2016-Jul-22 18:31N 43°16' E 006°38'0 0.0
2016-Jul-22 17:31N 43°16' E 006°38'0 0.0
2016-Jul-22 16:24N 43°16' E 006°38'0 0.0
2016-Jul-22 15:07N 43°16' E 006°38'12 4.0
2016-Jul-22 12:13N 43°23' E 006°51'912.8
2016-Jul-22 11:33N 43°28' E 007°01'1413.9
2016-Jul-22 10:33N 43°37' E 007°15'1010.2
2016-Jul-22 09:33N 43°44' E 007°25'0 0.0
2016-Jul-22 06:31N 43°44' E 007°25'0 0.0
2016-Jul-22 03:31N 43°44' E 007°25'0 0.0
2016-Jul-22 02:25N 43°44' E 007°25'0 0.0
2016-Jul-22 00:31N 43°44' E 007°25'0 0.0
2016-Jul-21 19:04N 43°44' E 007°25'0 0.0
2016-Jul-21 16:16N 43°44' E 007°25'0 0.0
2016-Jul-21 15:10N 43°44' E 007°25'0 0.0
2016-Jul-21 12:25N 43°44' E 007°25'0 0.0
2016-Jul-21 11:04N 43°44' E 007°25'0 0.0
2016-Jul-21 10:13N 43°44' E 007°25'0 0.0
2016-Jul-21 09:31N 43°44' E 007°25'0 0.0
2016-Jul-21 08:25N 43°44' E 007°25'0 0.0
2016-Jul-21 07:31N 43°44' E 007°25'0 0.0
2016-Jul-21 06:25N 43°44' E 007°25'0 0.0
2016-Jul-21 05:31N 43°44' E 007°25'0 0.0
2016-Jul-21 04:19N 43°44' E 007°25'0 0.0
2016-Jul-21 03:28N 43°44' E 007°25'0 0.0
2016-Jul-21 02:31N 43°44' E 007°25'0 0.0
2016-Jul-21 01:25N 43°44' E 007°25'0 0.0
2016-Jul-21 00:28N 43°44' E 007°25'0 0.0
2016-Jul-20 23:31N 43°44' E 007°25'0 0.0
2016-Jul-20 04:25N 43°44' E 007°25'0 0.0
2016-Jul-20 03:22N 43°44' E 007°25'0 0.0
2016-Jul-19 18:16N 43°44' E 007°25'0 0.0
2016-Jul-19 15:28N 43°44' E 007°25'0 0.0
2016-Jul-18 16:19N 43°44' E 007°25'  
Track history (hours):
 
Tides and Currents Weather Stations Pressure Air Temp Water Temp Dewpoint Dewpoint Depression Visibility Wind Speed Wind Dir Waves Ship Positions

Wedge Too

Last reported at 2016-Jul-28 15:33 UTC. Time now 2016-Jul-30 09:19 UTC.
Position N 44°18' E 009°13'.

Length 65 m; draft 3.4 m.

Type: Pleasure craft. MMSI: 319861000.

Date/timePositionNaut miles runAvg speedWind from/ knotsBaromVisibWave heightAir tempDewpointWater temp
2016-Jul-28 15:33N 44°18' E 009°13'1111.1
2016-Jul-28 14:33N 44°13' E 008°59'1413.7
2016-Jul-28 13:33N 44°07' E 008°42'1413.8
2016-Jul-28 12:32N 44°00' E 008°25'1313.5
2016-Jul-28 11:33N 43°54' E 008°09'1513.7
2016-Jul-28 10:29N 43°48' E 007°50'1413.7
2016-Jul-28 09:27N 43°45' E 007°31'4 3.3
2016-Jul-28 08:11N 43°44' E 007°25'0 0.0
2016-Jul-28 07:29N 43°44' E 007°25'0 0.0
2016-Jul-28 06:23N 43°44' E 007°25'0 0.0
2016-Jul-28 05:29N 43°44' E 007°25'0 0.0
2016-Jul-28 03:29N 43°44' E 007°25'0 0.0
2016-Jul-27 21:05N 43°44' E 007°25'0 0.0
2016-Jul-27 17:20N 43°44' E 007°25'0 0.0
2016-Jul-27 16:17N 43°44' E 007°25'0 0.0
2016-Jul-27 13:08N 43°44' E 007°25'0 0.0
2016-Jul-26 02:17N 43°44' E 007°25'0 0.0
2016-Jul-26 00:05N 43°44' E 007°25'0 0.0
2016-Jul-25 23:26N 43°44' E 007°25'0 0.0
2016-Jul-25 21:26N 43°44' E 007°25'0 0.0
2016-Jul-25 20:26N 43°44' E 007°25'0 0.0
2016-Jul-25 10:26N 43°44' E 007°25'0 0.0
2016-Jul-25 09:29N 43°44' E 007°25'0 0.0
2016-Jul-25 08:32N 43°44' E 007°25'0 0.0
2016-Jul-25 07:23N 43°44' E 007°25'0 0.0
2016-Jul-25 01:29N 43°44' E 007°25'0 0.0
2016-Jul-25 00:17N 43°44' E 007°25'0 0.0
2016-Jul-24 23:29N 43°44' E 007°25'0 0.0
2016-Jul-24 22:29N 43°44' E 007°25'0 0.0
2016-Jul-24 21:11N 43°44' E 007°25'0 0.0
2016-Jul-24 20:17N 43°44' E 007°25'0 0.0
2016-Jul-24 19:23N 43°44' E 007°25'0 0.0
2016-Jul-24 18:11N 43°44' E 007°25'0 0.0
2016-Jul-24 17:29N 43°44' E 007°25'0 0.0
2016-Jul-24 14:29N 43°44' E 007°25'0 0.0
2016-Jul-24 13:23N 43°44' E 007°25'1 0.2
2016-Jul-24 10:27N 43°44' E 007°26'1112.8
2016-Jul-24 09:33N 43°36' E 007°15'1313.2
2016-Jul-24 08:34N 43°27' E 007°02'21 0.6
2016-Jul-22 19:13N 43°16' E 006°38'0 0.0
2016-Jul-22 18:31N 43°16' E 006°38'0 0.0
2016-Jul-22 17:31N 43°16' E 006°38'0 0.0
2016-Jul-22 16:24N 43°16' E 006°38'0 0.0
2016-Jul-22 15:07N 43°16' E 006°38'12 4.0
2016-Jul-22 12:13N 43°23' E 006°51'912.8
2016-Jul-22 11:33N 43°28' E 007°01'1413.9
2016-Jul-22 10:33N 43°37' E 007°15'1010.2
2016-Jul-22 09:33N 43°44' E 007°25'0 0.0
2016-Jul-22 06:31N 43°44' E 007°25'0 0.0
2016-Jul-22 03:31N 43°44' E 007°25'0 0.0
2016-Jul-22 02:25N 43°44' E 007°25'0 0.0
2016-Jul-22 00:31N 43°44' E 007°25'0 0.0
2016-Jul-21 19:04N 43°44' E 007°25'0 0.0
2016-Jul-21 16:16N 43°44' E 007°25'0 0.0
2016-Jul-21 15:10N 43°44' E 007°25'0 0.0
2016-Jul-21 12:25N 43°44' E 007°25'0 0.0
2016-Jul-21 11:04N 43°44' E 007°25'0 0.0
2016-Jul-21 10:13N 43°44' E 007°25'0 0.0
2016-Jul-21 09:31N 43°44' E 007°25'0 0.0
2016-Jul-21 08:25N 43°44' E 007°25'0 0.0
2016-Jul-21 07:31N 43°44' E 007°25'0 0.0
2016-Jul-21 06:25N 43°44' E 007°25'0 0.0
2016-Jul-21 05:31N 43°44' E 007°25'0 0.0
2016-Jul-21 04:19N 43°44' E 007°25'0 0.0
2016-Jul-21 03:28N 43°44' E 007°25'0 0.0
2016-Jul-21 02:31N 43°44' E 007°25'0 0.0
2016-Jul-21 01:25N 43°44' E 007°25'0 0.0
2016-Jul-21 00:28N 43°44' E 007°25'0 0.0
2016-Jul-20 23:31N 43°44' E 007°25'0 0.0
2016-Jul-20 04:25N 43°44' E 007°25'0 0.0
2016-Jul-20 03:22N 43°44' E 007°25'0 0.0
2016-Jul-19 18:16N 43°44' E 007°25'0 0.0
2016-Jul-19 15:28N 43°44' E 007°25'0 0.0
2016-Jul-18 16:19N 43°44' E 007°25'  

Dump ship's entire track history